createdAt,value
2019-02-10T00:01:34.316Z,4.80
2019-02-10T00:04:00.410Z,5.17
2019-02-10T00:06:26.607Z,5.37
2019-02-10T00:08:52.910Z,5.08
2019-02-10T00:11:19.042Z,4.60
2019-02-10T00:13:45.175Z,5.70
2019-02-10T00:16:14.178Z,5.45
2019-02-10T00:18:40.267Z,5.15
2019-02-10T00:21:06.297Z,5.42
2019-02-10T00:23:32.352Z,5.25
2019-02-10T00:25:58.347Z,4.62
2019-02-10T00:28:24.395Z,8.53
2019-02-10T00:30:50.419Z,5.43
2019-02-10T00:33:16.540Z,4.78
2019-02-10T00:35:42.571Z,5.70
2019-02-10T00:38:08.697Z,5.00
2019-02-10T00:40:34.731Z,5.25
2019-02-10T00:43:00.746Z,5.17
2019-02-10T00:45:26.795Z,4.90
2019-02-10T00:47:52.815Z,5.60
2019-02-10T00:50:18.861Z,6.00
2019-02-10T00:52:45.002Z,7.00
2019-02-10T00:55:11.047Z,6.15
2019-02-10T00:57:37.316Z,5.33
2019-02-10T01:00:06.464Z,5.40
2019-02-10T01:02:32.530Z,5.10
2019-02-10T01:04:58.587Z,4.90
2019-02-10T01:07:24.619Z,5.15
2019-02-10T01:09:50.842Z,5.40
2019-02-10T01:12:16.900Z,4.87
2019-02-10T01:14:42.929Z,5.58
2019-02-10T01:17:09.271Z,7.00
2019-02-10T01:19:35.337Z,8.08
2019-02-10T01:22:01.379Z,4.75
2019-02-10T01:24:27.440Z,5.20
2019-02-10T01:26:53.464Z,5.45
2019-02-10T01:29:19.491Z,4.90
2019-02-10T01:31:45.728Z,5.55
2019-02-10T01:34:11.876Z,5.33
2019-02-10T01:36:37.905Z,5.60
2019-02-10T01:39:06.555Z,4.80
2019-02-10T01:41:32.604Z,5.20
2019-02-10T01:43:58.704Z,8.38
2019-02-10T01:46:24.798Z,7.25
2019-02-10T01:48:50.814Z,6.42
2019-02-10T01:51:16.823Z,5.28
2019-02-10T01:53:43.019Z,7.30
2019-02-10T01:56:09.073Z,5.30
2019-02-10T01:58:35.092Z,5.78
2019-02-10T02:01:01.123Z,5.78
2019-02-10T02:03:27.150Z,8.25
2019-02-10T02:05:53.211Z,6.55
2019-02-10T02:08:19.248Z,5.60
2019-02-10T02:10:45.292Z,5.25
2019-02-10T02:13:11.360Z,5.97
2019-02-10T02:15:37.381Z,5.65
2019-02-10T02:18:03.752Z,5.83
2019-02-10T02:20:29.811Z,5.50
2019-02-10T02:22:55.847Z,5.55
2019-02-10T02:25:21.878Z,5.78
2019-02-10T02:27:47.931Z,5.50
2019-02-10T02:30:14.280Z,5.08
2019-02-10T02:32:40.307Z,5.80
2019-02-10T02:35:06.696Z,5.55
2019-02-10T02:37:32.746Z,5.83
2019-02-10T02:39:58.769Z,5.10
2019-02-10T02:42:24.832Z,5.10
2019-02-10T02:44:50.876Z,5.28
2019-02-10T02:47:16.893Z,5.87
2019-02-10T02:49:43.177Z,5.50
2019-02-10T02:52:09.218Z,5.20
2019-02-10T02:54:35.260Z,5.20
2019-02-10T02:57:01.378Z,5.28
2019-02-10T02:59:27.489Z,5.00
2019-02-10T03:01:53.512Z,5.40
2019-02-10T03:04:19.665Z,5.55
2019-02-10T03:06:45.685Z,5.60
2019-02-10T03:09:12.512Z,4.90
2019-02-10T03:11:38.683Z,4.17
2019-02-10T03:14:06.641Z,4.90
2019-02-10T03:16:32.969Z,4.40
2019-02-10T03:18:59.127Z,4.60
2019-02-10T03:21:25.134Z,4.67
2019-02-10T03:23:51.152Z,4.30
2019-02-10T03:26:17.245Z,4.20
2019-02-10T03:28:43.262Z,4.40
2019-02-10T03:31:09.285Z,4.40
2019-02-10T03:33:35.430Z,4.53
2019-02-10T03:36:01.463Z,4.30
2019-02-10T03:38:27.501Z,4.08
2019-02-10T03:40:53.548Z,4.57
2019-02-10T03:43:19.582Z,3.83
2019-02-10T03:45:45.598Z,4.28
2019-02-10T03:48:11.652Z,4.20
2019-02-10T03:50:37.706Z,4.00
2019-02-10T03:53:03.935Z,4.20
2019-02-10T03:55:29.969Z,4.10
2019-02-10T03:57:56.129Z,4.70
2019-02-10T04:00:22.200Z,4.20
2019-02-10T04:02:48.279Z,3.90
2019-02-10T04:05:14.307Z,3.98
2019-02-10T04:07:40.699Z,4.37
2019-02-10T04:10:08.748Z,4.45
2019-02-10T04:12:34.904Z,3.77
2019-02-10T04:15:01.041Z,4.20
2019-02-10T04:17:27.183Z,4.72
2019-02-10T04:19:53.372Z,4.30
2019-02-10T04:22:20.015Z,4.03
2019-02-10T04:24:48.213Z,4.90
2019-02-10T04:27:14.419Z,4.40
2019-02-10T04:29:40.606Z,3.98
2019-02-10T04:32:06.803Z,4.30
2019-02-10T04:34:33.212Z,4.28
2019-02-10T04:37:00.198Z,4.42
2019-02-10T04:39:26.311Z,4.40
2019-02-10T04:41:52.343Z,3.97
2019-02-10T04:44:18.387Z,4.47
2019-02-10T04:46:44.538Z,4.50
2019-02-10T04:49:10.555Z,4.50
2019-02-10T04:51:36.586Z,3.90
2019-02-10T04:54:02.717Z,4.12
2019-02-10T04:56:28.735Z,3.60
2019-02-10T04:58:54.872Z,3.85
2019-02-10T05:01:20.999Z,4.50
2019-02-10T05:03:47.308Z,3.90
2019-02-10T05:06:13.413Z,3.70
2019-02-10T05:08:39.549Z,3.83
2019-02-10T05:11:05.687Z,3.90
2019-02-10T05:13:31.905Z,4.50
2019-02-10T05:15:58.347Z,3.85
2019-02-10T05:18:24.542Z,4.22
2019-02-10T05:20:50.715Z,3.97
2019-02-10T05:23:16.940Z,3.58
2019-02-10T05:25:43.850Z,4.30
2019-02-10T05:28:10.298Z,3.70
2019-02-10T05:30:36.805Z,3.52
2019-02-10T05:33:07.768Z,3.80
2019-02-10T05:35:33.848Z,4.03
2019-02-10T05:38:04.180Z,4.20
2019-02-10T05:40:27.930Z,4.20
2019-02-10T05:42:53.961Z,3.80
2019-02-10T05:45:20.020Z,3.30
2019-02-10T05:47:46.042Z,4.10
2019-02-10T05:50:12.091Z,3.70
2019-02-10T05:52:38.139Z,3.65
2019-02-10T05:55:05.067Z,3.80
2019-02-10T05:57:31.177Z,4.10
2019-02-10T05:59:57.293Z,3.72
2019-02-10T06:02:25.199Z,3.70
2019-02-10T06:04:51.240Z,3.90
2019-02-10T06:07:17.272Z,4.00
2019-02-10T06:09:43.291Z,3.12
2019-02-10T06:12:09.361Z,3.87
2019-02-10T06:14:35.388Z,3.90
2019-02-10T06:17:01.439Z,3.83
2019-02-10T06:19:28.534Z,4.42
2019-02-10T06:21:54.561Z,4.30
2019-02-10T06:24:20.658Z,3.52
2019-02-10T06:26:47.155Z,4.30
2019-02-10T06:29:13.269Z,4.42
2019-02-10T06:31:39.572Z,3.62
2019-02-10T06:34:05.599Z,4.50
2019-02-10T06:36:31.631Z,4.00
2019-02-10T06:40:15.352Z,3.98
2019-02-10T06:42:41.388Z,4.10
2019-02-10T06:45:09.304Z,3.90
2019-02-10T06:47:35.347Z,4.08
2019-02-10T06:50:01.394Z,3.80
2019-02-10T06:52:27.437Z,3.72
2019-02-10T06:54:53.455Z,3.50
2019-02-10T06:57:20.269Z,4.00
2019-02-10T06:59:48.215Z,3.42
2019-02-10T07:02:16.155Z,3.70
2019-02-10T07:04:42.208Z,3.63
2019-02-10T07:07:08.249Z,3.52
2019-02-10T07:09:34.273Z,3.72
2019-02-10T07:12:20.990Z,3.77
2019-02-10T07:14:47.051Z,3.70
2019-02-10T07:17:16.887Z,3.65
2019-02-10T07:20:19.381Z,3.72
2019-02-10T07:22:49.223Z,3.90
2019-02-10T07:25:19.070Z,3.55
2019-02-10T07:27:57.936Z,3.45
2019-02-10T07:30:33.813Z,3.27
2019-02-10T07:33:02.477Z,3.25
2019-02-10T07:37:26.571Z,3.67
2019-02-10T07:40:02.099Z,3.70
2019-02-10T07:42:47.127Z,3.40
2019-02-10T07:45:22.736Z,4.53
2019-02-10T07:48:01.746Z,3.55
2019-02-10T07:50:49.447Z,3.80
2019-02-10T07:53:25.054Z,4.20
2019-02-10T07:56:06.864Z,3.72
2019-02-10T07:58:42.507Z,3.37
2019-02-10T08:01:24.522Z,3.92
2019-02-10T08:04:00.587Z,3.60
2019-02-10T08:06:46.954Z,3.22
2019-02-10T08:09:19.919Z,3.60
2019-02-10T08:12:00.006Z,3.42
2019-02-10T08:14:41.774Z,3.63
2019-02-10T08:17:30.957Z,3.40
2019-02-10T08:20:19.574Z,3.80
2019-02-10T08:22:55.387Z,3.30
2019-02-10T08:25:33.765Z,3.83
2019-02-10T08:28:03.605Z,4.08
2019-02-10T08:30:36.431Z,3.40
2019-02-10T08:33:12.311Z,3.90
2019-02-10T08:35:45.195Z,3.80
2019-02-10T08:38:31.880Z,3.80
2019-02-10T08:41:18.495Z,3.60
2019-02-10T08:44:00.282Z,3.20
2019-02-10T08:46:30.218Z,3.60
2019-02-10T08:49:19.929Z,3.25
2019-02-10T08:51:58.653Z,3.75
2019-02-10T08:54:25.214Z,3.62
2019-02-10T08:56:51.305Z,3.33
2019-02-10T08:59:17.366Z,3.00
2019-02-10T09:01:43.424Z,3.60
2019-02-10T09:04:09.503Z,3.00
2019-02-10T09:06:35.531Z,2.90
2019-02-10T09:09:02.844Z,3.20
2019-02-10T09:11:29.066Z,3.47
2019-02-10T09:13:55.099Z,2.90
2019-02-10T09:16:21.184Z,3.05
2019-02-10T09:18:47.231Z,3.55
2019-02-10T09:21:13.323Z,2.80
2019-02-10T09:23:39.693Z,3.65
2019-02-10T09:26:05.763Z,4.58
2019-02-10T09:28:31.864Z,3.72
2019-02-10T09:30:57.892Z,3.87
2019-02-10T09:33:24.080Z,3.20
2019-02-10T09:35:50.127Z,3.70
2019-02-10T09:38:16.178Z,3.85
2019-02-10T09:40:42.338Z,3.63
2019-02-10T09:43:08.732Z,3.70
2019-02-10T09:45:34.968Z,3.30
2019-02-10T09:48:00.991Z,3.50
2019-02-10T09:50:27.066Z,3.60
2019-02-10T09:52:53.205Z,3.55
2019-02-10T09:55:19.256Z,3.35
2019-02-10T09:57:45.464Z,3.90
2019-02-10T10:00:12.985Z,4.08
2019-02-10T10:02:39.211Z,3.65
2019-02-10T10:05:07.741Z,3.70
2019-02-10T10:07:33.777Z,3.80
2019-02-10T10:09:59.826Z,5.50
2019-02-10T10:12:25.884Z,3.72
2019-02-10T10:14:51.939Z,3.85
2019-02-10T10:17:18.052Z,4.05
2019-02-10T10:19:44.141Z,4.03
2019-02-10T10:22:10.356Z,4.08
2019-02-10T10:24:36.560Z,3.92
2019-02-10T10:27:02.685Z,3.58
2019-02-10T10:29:28.787Z,3.73
2019-02-10T10:31:54.845Z,3.95
2019-02-10T10:34:20.922Z,3.92
2019-02-10T10:36:47.070Z,3.65
2019-02-10T10:39:13.196Z,3.90
2019-02-10T10:41:39.223Z,3.50
2019-02-10T10:44:05.254Z,4.28
2019-02-10T10:46:31.293Z,3.97
2019-02-10T10:48:58.646Z,4.05
2019-02-10T10:51:24.670Z,4.22
2019-02-10T10:53:50.755Z,7.05
2019-02-10T10:56:16.883Z,4.05
2019-02-10T10:58:42.923Z,4.28
2019-02-10T11:01:08.979Z,4.47
2019-02-10T11:03:35.013Z,4.30
2019-02-10T11:06:01.048Z,4.20
2019-02-10T11:08:27.097Z,4.30
2019-02-10T11:10:53.395Z,4.37
2019-02-10T11:13:19.470Z,4.97
2019-02-10T11:15:45.709Z,4.00
2019-02-10T11:18:12.042Z,4.25
2019-02-10T11:20:38.146Z,4.58
2019-02-10T11:23:04.457Z,4.00
2019-02-10T11:25:30.571Z,4.03
2019-02-10T11:27:56.606Z,4.03
2019-02-10T11:30:24.779Z,3.90
2019-02-10T11:32:50.823Z,4.03
2019-02-10T11:35:16.856Z,4.05
2019-02-10T11:37:42.896Z,3.40
2019-02-10T11:40:10.452Z,3.50
2019-02-10T11:42:36.669Z,3.83
2019-02-10T11:45:05.257Z,4.00
2019-02-10T11:47:31.321Z,3.50
2019-02-10T11:49:57.483Z,4.37
2019-02-10T11:52:23.567Z,4.00
2019-02-10T11:54:49.595Z,3.42
2019-02-10T11:57:15.765Z,4.20
2019-02-10T11:59:41.822Z,4.10
2019-02-10T12:02:08.324Z,3.70
2019-02-10T12:04:34.542Z,3.90
2019-02-10T12:07:00.587Z,4.33
2019-02-10T12:09:26.622Z,4.28
2019-02-10T12:11:52.707Z,3.90
2019-02-10T12:14:18.745Z,4.15
2019-02-10T12:16:44.807Z,4.10
2019-02-10T12:19:10.858Z,3.70
2019-02-10T12:21:36.896Z,4.40
2019-02-10T12:24:03.202Z,4.65
2019-02-10T12:26:31.968Z,4.05
2019-02-10T12:28:58.250Z,4.50
2019-02-10T12:31:24.438Z,4.45
2019-02-10T12:33:50.646Z,4.20
2019-02-10T12:36:16.779Z,4.30
2019-02-10T12:38:42.936Z,4.40
2019-02-10T12:41:09.087Z,4.23
2019-02-10T12:43:35.142Z,3.80
2019-02-10T12:46:01.204Z,4.45
2019-02-10T12:48:27.235Z,4.10
2019-02-10T12:50:53.279Z,4.05
2019-02-10T12:53:19.411Z,4.60
2019-02-10T12:55:45.457Z,4.10
2019-02-10T12:58:11.459Z,4.28
2019-02-10T13:00:38.018Z,4.80
2019-02-10T13:03:04.151Z,5.30
2019-02-10T13:05:30.183Z,14.40
2019-02-10T13:07:56.202Z,15.83
2019-02-10T13:10:22.319Z,7.20
2019-02-10T13:12:48.403Z,5.62
2019-02-10T13:15:14.581Z,5.60
2019-02-10T13:17:40.743Z,5.80
2019-02-10T13:20:09.358Z,5.40
2019-02-10T13:22:35.417Z,8.13
2019-02-10T13:25:01.564Z,6.35
2019-02-10T13:27:28.028Z,6.00
2019-02-10T13:29:54.171Z,5.90
2019-02-10T13:32:20.278Z,5.60
2019-02-10T13:34:46.427Z,5.72
2019-02-10T13:37:12.654Z,5.30
2019-02-10T13:39:38.768Z,5.30
2019-02-10T13:42:04.801Z,4.53
2019-02-10T13:44:31.226Z,5.00
2019-02-10T13:46:57.288Z,4.50
2019-02-10T13:49:23.374Z,4.50
2019-02-10T13:51:49.637Z,3.65
2019-02-10T13:54:15.822Z,3.30
2019-02-10T13:56:41.951Z,3.10
2019-02-10T13:59:08.054Z,3.30
2019-02-10T14:01:34.416Z,3.40
2019-02-10T14:04:00.547Z,3.22
2019-02-10T14:06:26.585Z,3.47
2019-02-10T14:08:52.657Z,3.10
2019-02-10T14:11:18.759Z,2.50
2019-02-10T14:13:45.172Z,2.60
2019-02-10T14:16:11.238Z,2.42
2019-02-10T14:18:37.295Z,2.20
2019-02-10T14:21:03.685Z,2.62
2019-02-10T14:23:29.968Z,2.37
2019-02-10T14:25:56.065Z,2.20
2019-02-10T14:28:22.433Z,2.20
2019-02-10T14:30:48.597Z,2.00
2019-02-10T14:33:15.820Z,2.30
2019-02-10T14:35:41.891Z,2.02
2019-02-10T14:38:08.099Z,2.20
2019-02-10T14:40:34.509Z,2.10
2019-02-10T14:43:00.680Z,1.90
2019-02-10T14:45:27.119Z,1.90
2019-02-10T14:47:54.490Z,2.00
2019-02-10T14:50:23.927Z,1.90
2019-02-10T14:52:50.561Z,2.10
2019-02-10T14:55:16.755Z,2.00
2019-02-10T14:57:43.084Z,2.22
2019-02-10T15:00:14.277Z,2.30
2019-02-10T15:02:40.779Z,2.40
2019-02-10T15:05:06.995Z,2.40
2019-02-10T15:07:33.116Z,2.33
2019-02-10T15:09:59.161Z,2.30
2019-02-10T15:12:25.217Z,2.30
2019-02-10T15:14:51.287Z,2.37
2019-02-10T15:17:17.448Z,2.50
2019-02-10T15:19:43.512Z,2.70
2019-02-10T15:22:09.624Z,2.60
2019-02-10T15:24:35.849Z,2.58
2019-02-10T15:27:02.050Z,2.75
2019-02-10T15:29:28.156Z,2.87
2019-02-10T15:31:54.334Z,2.90
2019-02-10T15:34:20.543Z,2.83
2019-02-10T15:36:46.564Z,2.80
2019-02-10T15:39:12.927Z,3.10
2019-02-10T15:41:39.011Z,3.20
2019-02-10T15:44:05.138Z,3.30
2019-02-10T15:46:31.234Z,3.70
2019-02-10T15:48:57.805Z,3.40
2019-02-10T15:51:31.534Z,3.77
2019-02-10T15:53:51.857Z,3.80
2019-02-10T15:56:18.100Z,3.90
2019-02-10T15:58:44.128Z,3.70
2019-02-10T16:01:10.377Z,4.07
2019-02-10T16:03:36.469Z,3.90
2019-02-10T16:06:02.541Z,3.90
2019-02-10T16:08:28.601Z,4.03
2019-02-10T16:10:58.145Z,4.45
2019-02-10T16:13:22.615Z,5.10
2019-02-10T16:15:48.631Z,4.90
2019-02-10T16:18:14.701Z,5.20
2019-02-10T16:20:40.743Z,4.90
2019-02-10T16:23:06.837Z,5.10
2019-02-10T16:25:32.914Z,5.30
2019-02-10T16:27:59.053Z,5.25
2019-02-10T16:30:25.317Z,5.80
2019-02-10T16:32:51.536Z,5.40
2019-02-10T16:35:17.566Z,5.17
2019-02-10T16:37:43.878Z,5.30
2019-02-10T16:40:13.466Z,5.45
2019-02-10T16:42:39.611Z,6.00
2019-02-10T16:45:08.427Z,6.30
2019-02-10T16:47:34.538Z,5.65
2019-02-10T16:50:00.567Z,5.50
2019-02-10T16:52:26.599Z,5.30
2019-02-10T16:54:52.699Z,5.05
2019-02-10T16:57:18.773Z,5.67
2019-02-10T16:59:44.891Z,5.72
2019-02-10T17:02:10.961Z,5.20
2019-02-10T17:04:37.071Z,5.20
2019-02-10T17:07:03.104Z,5.00
2019-02-10T17:09:30.496Z,4.83
2019-02-10T17:11:56.563Z,4.80
2019-02-10T17:14:25.660Z,5.20
2019-02-10T17:16:51.807Z,5.47
2019-02-10T17:19:17.925Z,5.53
2019-02-10T17:21:46.648Z,6.00
2019-02-10T17:24:12.757Z,5.50
2019-02-10T17:26:44.686Z,5.80
2019-02-10T17:29:12.837Z,5.92
2019-02-10T17:31:38.963Z,5.45
2019-02-10T17:34:05.028Z,5.22
2019-02-10T17:36:31.108Z,5.47
2019-02-10T17:38:57.136Z,5.10
2019-02-10T17:41:24.712Z,5.10
2019-02-10T17:43:50.851Z,5.50
2019-02-10T17:46:16.909Z,7.00
2019-02-10T17:48:43.154Z,4.72
2019-02-10T17:51:09.754Z,4.20
2019-02-10T17:53:35.786Z,4.05
2019-02-10T17:56:01.960Z,3.90
2019-02-10T17:58:28.177Z,3.90
2019-02-10T18:00:54.555Z,4.60
2019-02-10T18:03:20.740Z,4.05
2019-02-10T18:05:47.039Z,3.40
2019-02-10T18:08:13.071Z,3.67
2019-02-10T18:10:39.171Z,2.80
2019-02-10T18:13:05.289Z,3.40
2019-02-10T18:15:45.386Z,2.95
2019-02-10T18:18:14.615Z,2.97
2019-02-10T18:20:46.286Z,3.00
2019-02-10T18:23:35.418Z,3.12
2019-02-10T18:26:09.262Z,2.70
2019-02-10T18:28:53.793Z,2.50
2019-02-10T18:31:28.296Z,2.35
2019-02-10T18:33:56.364Z,2.30
2019-02-10T18:36:24.423Z,2.40
2019-02-10T18:38:52.378Z,2.50
2019-02-10T18:41:20.314Z,2.05
2019-02-10T18:43:50.963Z,2.30
2019-02-10T18:46:39.945Z,2.80
2019-02-10T18:49:08.230Z,2.92
2019-02-10T18:51:36.284Z,3.70
2019-02-10T18:54:10.713Z,4.20
2019-02-10T18:56:39.212Z,4.30
2019-02-10T18:59:23.870Z,3.80
2019-02-10T19:02:00.951Z,3.90
2019-02-10T19:04:28.961Z,3.40
2019-02-10T19:06:59.699Z,3.45
2019-02-10T19:09:27.711Z,2.90
2019-02-10T19:11:59.546Z,3.27
2019-02-10T19:14:27.639Z,3.00
2019-02-10T19:16:55.662Z,3.60
2019-02-10T19:19:41.319Z,3.83
2019-02-10T19:22:18.422Z,5.25
2019-02-10T19:25:03.372Z,5.17
2019-02-10T19:27:31.508Z,6.12
2019-02-10T19:29:59.682Z,9.63
2019-02-10T19:32:27.760Z,7.10
2019-02-10T19:34:55.831Z,5.00
2019-02-10T19:37:36.971Z,4.58
2019-02-10T19:40:07.085Z,4.85
2019-02-10T19:42:35.291Z,4.92
2019-02-10T19:45:19.909Z,5.30
2019-02-10T19:47:59.787Z,5.50
2019-02-10T19:50:27.750Z,4.97
2019-02-10T19:52:58.612Z,5.72
2019-02-10T19:55:26.568Z,6.20
2019-02-10T19:57:57.094Z,6.20
2019-02-10T20:00:34.237Z,6.10
2019-02-10T20:03:02.211Z,8.00
2019-02-10T20:05:30.152Z,7.28
2019-02-10T20:08:14.691Z,4.05
2019-02-10T20:10:42.638Z,2.40
2019-02-10T20:13:19.829Z,1.92
2019-02-10T20:15:50.712Z,1.70
2019-02-10T20:18:31.012Z,1.32
2019-02-10T20:20:58.971Z,1.60
2019-02-10T20:23:29.427Z,1.30
2019-02-10T20:26:02.159Z,1.22
2019-02-10T20:28:35.626Z,1.10
2019-02-10T20:31:06.414Z,1.10
2019-02-10T20:33:50.693Z,1.35
2019-02-10T20:36:27.636Z,1.20
2019-02-10T20:39:04.684Z,1.40
2019-02-10T20:41:47.535Z,1.90
2019-02-10T20:44:26.757Z,1.70
2019-02-10T20:46:57.231Z,1.80
2019-02-10T20:49:41.904Z,1.50
2019-02-10T20:52:09.844Z,1.35
2019-02-10T20:54:40.918Z,4.92
2019-02-10T20:57:25.618Z,1.70
2019-02-10T21:00:02.702Z,1.40
2019-02-10T21:02:30.745Z,1.40
2019-02-10T21:04:58.767Z,1.50
2019-02-10T21:07:41.687Z,1.50
2019-02-10T21:10:10.578Z,1.30
2019-02-10T21:12:44.460Z,2.02
2019-02-10T21:15:12.393Z,1.70
2019-02-10T21:17:41.637Z,1.50
2019-02-10T21:20:24.586Z,1.60
2019-02-10T21:22:52.559Z,1.50
2019-02-10T21:25:26.627Z,2.00
2019-02-10T21:27:57.635Z,2.02
2019-02-10T21:30:31.752Z,2.47
2019-02-10T21:33:16.315Z,2.42
2019-02-10T21:35:59.410Z,2.70
2019-02-10T21:38:30.180Z,2.95
2019-02-10T21:41:07.453Z,3.73
2019-02-10T21:48:59.188Z,3.83
2019-02-10T21:51:33.611Z,3.77
2019-02-10T21:54:01.028Z,3.30
2019-02-10T21:56:27.257Z,2.87
2019-02-10T21:58:58.957Z,2.70
2019-02-10T22:01:26.896Z,6.10
2019-02-10T22:03:53.801Z,4.28
2019-02-10T22:06:20.729Z,3.40
2019-02-10T22:08:50.165Z,2.87
2019-02-10T22:11:16.344Z,3.70
2019-02-10T22:13:42.685Z,3.70
2019-02-10T22:16:09.096Z,4.40
2019-02-10T22:18:35.382Z,3.95
2019-02-10T22:21:01.435Z,5.40
2019-02-10T22:23:27.505Z,5.70
2019-02-10T22:25:53.607Z,7.03
2019-02-10T22:28:20.190Z,6.90
2019-02-10T22:30:46.254Z,6.40
2019-02-10T22:33:12.884Z,6.85
2019-02-10T22:35:39.222Z,7.00
2019-02-10T22:38:05.398Z,7.70
2019-02-10T22:40:31.498Z,8.40
2019-02-10T22:42:57.563Z,9.23
2019-02-10T22:45:23.793Z,10.53
2019-02-10T22:47:49.848Z,11.55
2019-02-10T22:50:16.219Z,11.80
2019-02-10T22:52:42.269Z,12.37
2019-02-10T22:55:08.428Z,13.88
2019-02-10T22:57:34.519Z,13.62
2019-02-10T23:00:00.591Z,12.55
2019-02-10T23:02:26.626Z,12.47
2019-02-10T23:04:52.662Z,12.43
2019-02-10T23:07:18.945Z,11.30
2019-02-10T23:09:45.077Z,10.33
2019-02-10T23:12:13.160Z,9.30
2019-02-10T23:14:39.429Z,9.80
2019-02-10T23:17:05.485Z,8.95
2019-02-10T23:19:31.593Z,9.00
2019-02-10T23:21:57.780Z,8.15
2019-02-10T23:24:23.800Z,7.22
2019-02-10T23:26:49.830Z,7.25
2019-02-10T23:29:16.103Z,7.70
2019-02-10T23:31:42.146Z,6.70
2019-02-10T23:34:08.282Z,6.55
2019-02-10T23:36:34.378Z,6.92
2019-02-10T23:39:00.699Z,5.50
2019-02-10T23:41:26.849Z,6.33
2019-02-10T23:43:52.892Z,4.92
2019-02-10T23:46:19.074Z,5.72
2019-02-10T23:48:45.139Z,5.20
2019-02-10T23:51:11.197Z,6.00
2019-02-10T23:53:37.233Z,5.80
2019-02-10T23:56:03.377Z,5.40
2019-02-10T23:58:29.528Z,5.37
